createdAt,value
2022-11-27T00:05:21.387Z,5.7
2022-11-27T00:19:51.892Z,5.7
2022-11-27T00:34:22.264Z,5.8
2022-11-27T00:48:53.746Z,5.8
2022-11-27T01:03:22.298Z,5.9
2022-11-27T01:17:51.624Z,5.7
2022-11-27T01:32:22.950Z,5.7
2022-11-27T01:46:54.214Z,5.8
2022-11-27T02:01:23.469Z,5.5
2022-11-27T02:15:54.767Z,5.3
2022-11-27T02:30:22.233Z,4.8
2022-11-27T02:44:51.572Z,4.5
2022-11-27T02:59:21.198Z,4.4
2022-11-27T03:13:50.774Z,4.3
2022-11-27T03:28:21.183Z,4.2
2022-11-27T03:42:50.674Z,4.1
2022-11-27T03:57:20.177Z,3.9
2022-11-27T04:11:50.689Z,4.2
2022-11-27T04:26:23.526Z,4.3
2022-11-27T04:40:54.609Z,4.3
2022-11-27T04:55:24.849Z,4.3
2022-11-27T05:09:55.337Z,4.2
2022-11-27T05:24:24.825Z,4.2
2022-11-27T05:38:56.531Z,4.5
2022-11-27T05:53:26.423Z,4.6
2022-11-27T06:07:56.923Z,4.5
2022-11-27T06:22:29.187Z,4.7
2022-11-27T06:37:00.613Z,4.9
2022-11-27T06:51:30.330Z,5.2
2022-11-27T07:06:00.204Z,5.2
2022-11-27T07:20:31.260Z,5.3
2022-11-27T07:35:02.235Z,5.6
2022-11-27T07:49:32.492Z,5.7
2022-11-27T08:04:03.828Z,5.8
2022-11-27T08:18:33.654Z,6
2022-11-27T08:33:02.677Z,6.2
2022-11-27T08:47:33.841Z,6.4
2022-11-27T09:02:04.712Z,6.8
2022-11-27T09:16:38.871Z,7.5
2022-11-27T09:31:08.977Z,7.3
2022-11-27T09:45:40.232Z,7.6
2022-11-27T10:00:11.353Z,7.7
2022-11-27T10:14:42.428Z,7.8
2022-11-27T10:29:12.178Z,7.8
2022-11-27T10:43:42.315Z,7.9
2022-11-27T10:58:13.328Z,8.2
2022-11-27T11:12:44.671Z,8.5
2022-11-27T11:27:15.981Z,8.7
2022-11-27T11:41:47.326Z,9
2022-11-27T11:56:20.041Z,9.1
2022-11-27T12:10:49.441Z,9.4
2022-11-27T12:25:20.252Z,9.2
2022-11-27T12:39:51.250Z,9.2
2022-11-27T12:54:22.212Z,9.2
2022-11-27T13:08:52.837Z,9.1
2022-11-27T13:23:23.859Z,9.1
2022-11-27T13:37:54.834Z,8.9
2022-11-27T13:52:24.106Z,8.8
2022-11-27T14:06:54.225Z,8.6
2022-11-27T14:21:22.722Z,8.5
2022-11-27T14:35:53.103Z,8.6
2022-11-27T14:50:22.988Z,8.5
2022-11-27T15:04:53.132Z,8.5
2022-11-27T15:19:23.156Z,8.4
2022-11-27T15:33:55.622Z,8.3
2022-11-27T15:48:26.262Z,8.4
2022-11-27T16:02:55.327Z,8.1
2022-11-27T16:17:28.084Z,8.1
2022-11-27T16:31:57.567Z,8
2022-11-27T16:46:27.585Z,8
2022-11-27T17:00:57.728Z,8
2022-11-27T17:15:27.604Z,7.9
2022-11-27T17:30:03.290Z,7.9
2022-11-27T17:44:33.818Z,7.8
2022-11-27T17:59:06.012Z,7.8
2022-11-27T18:13:34.432Z,7.6
2022-11-27T18:28:04.331Z,7.6
2022-11-27T18:42:33.997Z,7.6
2022-11-27T18:56:59.959Z,7.6
2022-11-27T19:11:30.556Z,7.6
2022-11-27T19:26:01.454Z,7.5
2022-11-27T19:40:31.608Z,7.5
2022-11-27T19:55:00.850Z,7.4
2022-11-27T20:09:31.667Z,7.6
2022-11-27T20:24:01.295Z,7.4
2022-11-27T20:38:31.768Z,7.3
2022-11-27T20:53:01.443Z,7.3
2022-11-27T21:07:31.745Z,7.1
2022-11-27T21:22:02.803Z,7.2
2022-11-27T21:36:33.285Z,7.1
2022-11-27T21:51:03.777Z,7.3
2022-11-27T22:05:34.481Z,7.2
2022-11-27T22:20:05.214Z,7.3
2022-11-27T22:34:36.782Z,7.2
2022-11-27T22:49:07.225Z,7.1
2022-11-27T23:03:38.285Z,7.1
2022-11-27T23:18:07.244Z,7
2022-11-27T23:32:37.553Z,7.1
2022-11-27T23:47:08.986Z,7
